Terminal Aerodrome Forecast
Issued by NWS

Home | Current Version | Previous Version | Text Only | Print | Product List | Glossary On
Versions: 1 2 3 4 5 6 7 8 9 10 11 12 13
000
FTUS44 KTSA 041720
TAFXNA
TAF
KXNA 041720Z 0418/0518 30006KT P6SM BKN012 OVC022
     FM042000 32006KT P6SM OVC015
     FM050000 VRB03KT P6SM SCT015
     FM050800 00000KT 1SM BR SCT003 SCT250
     FM051300 00000KT 2SM BR FEW003 SCT250
     FM051400 VRB02KT 5SM BR SCT250
     FM051600 16004KT P6SM SCT250=

USA.gov is the U.S. government's official web portal to all federal, state and local government web resources and services.